Time;durP1;ratioP1;P1;durP2;ratioP2;P2;SDS_P1;SDS_P2;PMS_P1;PMS_P2;Temp;Humidity;BMP_temperature;BMP_pressure;BME280_temperature;BME280_humidity;BME280_pressure;Samples;Min_cycle;Max_cycle;Signal;HPM_P1;HPM_P2
2023/06/15 00:07:33;;;;;;;48.28;10.05;;;;;;;27.53;41.88;99974.66;20993902;28;20544;-58
2023/06/15 00:17:37;;;;;;;28.20;7.78;;;;;;;27.55;41.52;99971.53;20991954;28;20049;-58
2023/06/15 00:27:38;;;;;;;28.98;6.65;;;;;;;27.52;40.61;99989.06;20987418;28;20036;-57
2023/06/15 00:37:40;;;;;;;20.52;5.47;;;;;;;27.38;39.83;99985.78;20989214;28;20430;-57
2023/06/15 00:47:42;;;;;;;10.77;4.63;;;;;;;27.49;38.80;100023.47;21005442;28;20024;-58
2023/06/15 00:57:49;;;;;;;7.60;3.35;;;;;;;27.46;38.38;100024.19;21067557;28;20051;-57
2023/06/15 01:07:52;;;;;;;6.13;3.30;;;;;;;27.44;37.83;100037.75;21072242;28;20044;-57
2023/06/15 01:18:04;;;;;;;3.95;3.22;;;;;;;27.43;37.76;100052.97;21069736;28;20395;-58
2023/06/15 01:28:07;;;;;;;5.10;2.90;;;;;;;27.43;37.50;100069.84;20987878;28;20040;-57
2023/06/15 01:38:09;;;;;;;5.68;2.38;;;;;;;27.40;37.36;100078.94;21005054;28;20044;-59
2023/06/15 01:48:12;;;;;;;7.10;3.10;;;;;;;27.30;37.24;100085.81;20980041;28;20044;-58
2023/06/15 01:58:15;;;;;;;6.60;2.80;;;;;;;27.36;37.09;100121.81;21039744;28;20073;-59
2023/06/15 02:08:16;;;;;;;7.63;3.42;;;;;;;27.31;37.15;100113.59;21061158;28;20094;-59
2023/06/15 02:18:21;;;;;;;7.68;3.42;;;;;;;27.35;37.21;100130.56;21000479;28;20104;-59
2023/06/15 02:28:22;;;;;;;4.82;3.15;;;;;;;27.34;37.03;100145.78;21002454;28;20044;-55
2023/06/15 02:38:23;;;;;;;7.28;3.05;;;;;;;27.33;37.00;100139.34;20995855;28;20047;-57
2023/06/15 02:48:26;;;;;;;9.13;3.50;;;;;;;27.31;36.69;100136.06;20996876;28;20143;-57
2023/06/15 02:58:32;;;;;;;12.23;4.07;;;;;;;27.30;36.85;100128.78;20993481;28;20454;-57
2023/06/15 03:08:33;;;;;;;10.60;4.47;;;;;;;27.28;36.66;100139.53;20944313;28;20029;-58
2023/06/15 03:18:35;;;;;;;8.95;3.92;;;;;;;27.26;36.45;100143.84;20996263;28;20074;-57
2023/06/15 03:28:38;;;;;;;5.50;3.40;;;;;;;27.23;36.21;100151.00;20995602;28;20491;-56
2023/06/15 03:38:41;;;;;;;4.72;3.17;;;;;;;27.23;36.19;100151.00;20993736;28;20040;-56
2023/06/15 03:48:42;;;;;;;4.45;3.30;;;;;;;27.22;36.09;100157.78;20994733;28;20109;-56
2023/06/15 03:58:44;;;;;;;4.55;3.20;;;;;;;27.20;35.94;100148.88;20992971;28;20036;-57
2023/06/15 04:08:45;;;;;;;4.20;2.85;;;;;;;27.14;35.85;100139.00;20993533;28;20047;-56
2023/06/15 04:18:46;;;;;;;3.53;3.22;;;;;;;27.16;35.92;100133.84;20993165;28;20499;-58
2023/06/15 04:28:49;;;;;;;3.72;3.42;;;;;;;27.15;35.81;100132.22;20991521;28;20399;-56
2023/06/15 04:38:50;;;;;;;3.72;3.33;;;;;;;27.05;35.57;100129.81;20991936;28;20044;-55
2023/06/15 04:48:52;;;;;;;4.25;3.75;;;;;;;27.09;35.39;100127.97;20991904;28;20045;-56
2023/06/15 04:58:56;;;;;;;3.92;3.53;;;;;;;27.10;35.30;100140.84;20991001;28;20483;-58
2023/06/15 05:09:00;;;;;;;3.95;3.55;;;;;;;27.04;35.12;100142.19;21003857;28;20057;-57
2023/06/15 05:19:01;;;;;;;5.80;3.80;;;;;;;27.03;34.87;100146.16;21006962;28;20044;-58
2023/06/15 05:29:03;;;;;;;4.47;3.92;;;;;;;27.02;35.10;100155.75;21005358;28;20036;-56
2023/06/15 05:39:05;;;;;;;4.15;3.75;;;;;;;26.90;35.36;100150.06;21005252;28;20056;-56
2023/06/15 05:49:06;;;;;;;4.07;3.65;;;;;;;26.98;35.00;100178.06;21004693;28;20475;-56
2023/06/15 05:59:08;;;;;;;4.18;3.78;;;;;;;26.91;34.77;100171.34;21003315;28;20090;-56
2023/06/15 06:09:09;;;;;;;5.03;3.97;;;;;;;26.87;34.91;100165.59;21001742;28;20040;-56
2023/06/15 06:19:11;;;;;;;4.35;3.80;;;;;;;26.90;35.03;100176.16;21001108;28;20052;-56
2023/06/15 06:29:12;;;;;;;5.80;4.18;;;;;;;26.88;35.08;100166.41;20951022;28;20045;-56
2023/06/15 06:39:14;;;;;;;5.18;4.07;;;;;;;26.85;35.27;100174.38;20985034;28;20052;-56
2023/06/15 06:49:15;;;;;;;5.00;4.50;;;;;;;26.83;35.20;100201.94;21005870;28;20085;-54
2023/06/15 06:59:17;;;;;;;6.97;5.00;;;;;;;26.79;35.16;100195.34;21027285;28;20396;-57
2023/06/15 07:09:26;;;;;;;6.03;4.90;;;;;;;26.68;35.06;100171.66;20995876;28;20074;-54
2023/06/15 07:19:28;;;;;;;4.65;4.15;;;;;;;26.78;35.29;100210.56;21013994;28;20040;-57
2023/06/15 07:29:34;;;;;;;5.55;4.70;;;;;;;26.74;35.13;100198.34;20961346;28;20040;-55
2023/06/15 07:39:36;;;;;;;4.57;4.17;;;;;;;26.74;35.31;100187.13;20912847;28;20036;-56
2023/06/15 07:49:41;;;;;;;5.55;4.25;;;;;;;26.70;35.45;100172.13;20986502;28;20053;-54
2023/06/15 07:59:42;;;;;;;4.88;4.38;;;;;;;26.69;35.49;100169.66;20994669;28;20087;-56
2023/06/15 08:09:43;;;;;;;4.65;4.18;;;;;;;26.66;35.46;100165.53;20993345;28;20040;-55
2023/06/15 08:19:45;;;;;;;5.88;4.82;;;;;;;26.66;35.47;100176.78;20993814;28;20392;-55
2023/06/15 08:29:48;;;;;;;5.15;4.53;;;;;;;26.62;35.58;100181.44;20990901;28;20040;-56
2023/06/15 08:39:51;;;;;;;5.75;4.80;;;;;;;26.59;35.72;100182.09;20991872;28;20052;-57
2023/06/15 08:49:56;;;;;;;5.28;4.72;;;;;;;26.57;35.74;100190.03;20990336;28;20554;-58
2023/06/15 08:59:57;;;;;;;4.40;4.00;;;;;;;26.55;35.63;100197.97;20991107;28;20041;-54
2023/06/15 09:10:16;;;;;;;5.72;4.85;;;;;;;26.36;35.84;100173.94;20988867;28;20380;-55
2023/06/15 09:20:19;;;;;;;5.18;4.68;;;;;;;26.40;35.70;100179.69;20990754;28;20169;-56
2023/06/15 09:30:22;;;;;;;5.03;4.57;;;;;;;26.49;35.64;100213.34;20989982;28;20109;-55
2023/06/15 09:40:28;;;;;;;5.88;4.57;;;;;;;26.46;35.61;100216.81;20989869;28;20048;-59
2023/06/15 09:50:29;;;;;;;5.95;4.60;;;;;;;26.44;35.83;100228.38;20939704;28;20110;-55
2023/06/15 10:00:31;;;;;;;5.50;5.00;;;;;;;26.42;35.66;100261.53;20957311;28;20032;-57
2023/06/15 10:10:39;;;;;;;5.35;4.95;;;;;;;26.39;35.90;100258.56;21002434;28;20055;-58
2023/06/15 10:20:44;;;;;;;8.15;5.07;;;;;;;26.32;35.54;100257.09;20999982;28;20049;-57
2023/06/15 10:30:48;;;;;;;11.25;5.22;;;;;;;26.22;35.28;100281.88;21000100;28;20048;-57
2023/06/15 10:40:52;;;;;;;5.93;5.32;;;;;;;26.00;35.50;100286.50;20999697;28;20041;-56
2023/06/15 10:51:07;;;;;;;6.53;4.88;;;;;;;25.91;35.50;100290.47;20999148;28;20047;-55
2023/06/15 11:01:19;;;;;;;5.70;5.03;;;;;;;25.78;35.72;100286.69;20998004;28;20573;-58
2023/06/15 11:11:32;;;;;;;5.50;4.93;;;;;;;25.60;36.14;100297.03;20997657;28;20097;-58
2023/06/15 11:21:40;;;;;;;5.55;4.97;;;;;;;25.69;36.24;100311.88;20995709;28;20048;-57
2023/06/15 11:31:42;;;;;;;8.00;5.65;;;;;;;25.72;36.74;100321.63;20993719;28;20040;-58
2023/06/15 11:41:50;;;;;;;8.20;4.78;;;;;;;25.69;36.98;100330.66;21012602;28;20475;-57
2023/06/15 11:51:53;;;;;;;6.97;5.18;;;;;;;25.68;37.33;100338.25;20991344;28;20041;-57
2023/06/15 12:01:58;;;;;;;7.78;4.80;;;;;;;25.65;36.96;100313.69;20990751;28;20044;-57
2023/06/15 12:12:00;;;;;;;12.23;5.20;;;;;;;25.51;37.14;100310.19;20988685;28;20484;-57
2023/06/15 12:22:02;;;;;;;10.13;5.20;;;;;;;25.42;37.47;100326.16;20983837;28;20052;-58
2023/06/15 12:32:06;;;;;;;16.02;5.80;;;;;;;25.44;37.82;100349.09;20988770;28;20123;-56
2023/06/15 12:42:08;;;;;;;13.98;5.30;;;;;;;25.50;37.69;100337.41;20988609;28;20055;-54
2023/06/15 12:52:12;;;;;;;11.25;5.72;;;;;;;25.43;37.78;100336.22;20996352;28;20075;-57
2023/06/15 13:02:14;;;;;;;37.45;6.80;;;;;;;25.54;37.82;100337.56;20933798;28;20041;-56
2023/06/15 13:12:15;;;;;;;21.90;5.72;;;;;;;25.54;37.46;100359.97;20907940;28;20485;-57
2023/06/15 13:22:17;;;;;;;19.55;5.85;;;;;;;25.52;37.52;100363.13;20958797;28;20048;-54
2023/06/15 13:32:19;;;;;;;11.65;5.80;;;;;;;25.50;37.47;100368.22;21041062;28;20047;-56
2023/06/15 13:42:20;;;;;;;10.98;5.18;;;;;;;25.50;37.51;100387.81;21033880;28;20074;-58
2023/06/15 13:52:22;;;;;;;24.02;6.47;;;;;;;25.53;37.53;100386.34;21003590;28;20036;-56
2023/06/15 14:02:23;;;;;;;25.73;7.07;;;;;;;25.58;37.92;100394.59;21002710;28;20044;-57
2023/06/15 14:12:24;;;;;;;13.68;6.05;;;;;;;25.57;37.44;100406.97;21022054;28;20055;-58
2023/06/15 14:30:37;;;;;;;82.93;9.85;;;;;;;25.01;38.87;100425.31;21150290;27;20408;-59
2023/06/15 14:40:38;;;;;;;74.50;10.07;;;;;;;25.44;37.82;100424.72;21147377;28;20047;-58
2023/06/15 14:50:43;;;;;;;85.13;12.10;;;;;;;25.63;37.46;100446.88;21147567;28;20036;-58
2023/06/15 15:00:45;;;;;;;58.42;10.25;;;;;;;25.72;37.73;100434.53;21131547;28;20082;-57
2023/06/15 15:10:46;;;;;;;11.35;5.70;;;;;;;25.75;37.38;100436.69;21077335;28;20058;-59
2023/06/15 15:20:47;;;;;;;10.48;6.13;;;;;;;25.81;36.98;100452.22;21144431;28;20040;-58
2023/06/15 15:30:49;;;;;;;13.68;6.55;;;;;;;25.87;37.06;100440.84;21095788;28;20085;-59
2023/06/15 15:40:50;;;;;;;11.60;6.22;;;;;;;25.91;36.58;100450.25;21092589;28;20135;-57
2023/06/15 15:50:51;;;;;;;9.20;5.90;;;;;;;25.95;36.53;100440.06;21057382;28;20464;-59
2023/06/15 16:00:53;;;;;;;11.93;6.63;;;;;;;25.98;36.69;100443.03;21072351;28;20093;-58
2023/06/15 16:10:54;;;;;;;10.55;5.47;;;;;;;25.99;36.82;100439.06;21086200;28;20052;-58
2023/06/15 16:20:56;;;;;;;10.75;5.60;;;;;;;26.01;36.85;100430.31;21084762;28;20078;-57
2023/06/15 16:30:57;;;;;;;8.57;5.93;;;;;;;26.07;36.83;100429.00;21082947;28;20445;-59
2023/06/15 16:40:59;;;;;;;12.73;6.25;;;;;;;26.08;37.07;100416.66;21082226;28;20040;-58
2023/06/15 16:51:00;;;;;;;9.95;5.53;;;;;;;26.14;37.06;100406.91;21079811;28;20052;-57
2023/06/15 17:01:02;;;;;;;7.50;5.47;;;;;;;26.18;36.57;100407.91;21030870;28;20044;-56
2023/06/15 17:11:03;;;;;;;27.00;6.75;;;;;;;26.21;36.42;100412.88;21078974;28;20051;-58
2023/06/15 17:21:05;;;;;;;23.42;7.25;;;;;;;26.28;36.51;100395.53;21078344;28;20040;-58
2023/06/15 17:31:06;;;;;;;37.63;7.78;;;;;;;26.30;36.80;100394.06;21057414;28;20125;-57
2023/06/15 17:41:10;;;;;;;17.42;6.75;;;;;;;26.33;36.64;100398.97;21076136;28;20113;-58
2023/06/15 17:51:11;;;;;;;14.18;6.50;;;;;;;26.36;36.74;100392.72;21076073;28;20548;-58
2023/06/15 18:01:13;;;;;;;9.45;5.82;;;;;;;26.41;36.62;100385.28;21026754;28;20039;-59
2023/06/15 18:11:15;;;;;;;7.05;5.35;;;;;;;26.44;36.64;100376.25;21074993;28;20043;-58
2023/06/15 18:21:16;;;;;;;7.70;5.47;;;;;;;26.42;35.77;100372.91;21074680;28;20429;-59
2023/06/15 18:31:17;;;;;;;54.35;9.02;;;;;;;26.51;36.84;100380.19;21053675;28;20040;-58
2023/06/15 18:41:19;;;;;;;52.20;9.02;;;;;;;26.55;37.32;100377.53;21074195;28;20040;-56
2023/06/15 18:51:20;;;;;;;47.50;9.65;;;;;;;26.55;38.20;100378.38;21030627;28;20557;-55
2023/06/15 19:01:22;;;;;;;53.45;10.75;;;;;;;26.57;38.55;100386.44;21056970;28;20044;-57
2023/06/15 19:11:23;;;;;;;40.88;10.00;;;;;;;26.60;39.06;100397.00;21079156;28;20044;-58
2023/06/15 19:21:24;;;;;;;38.47;9.15;;;;;;;26.59;39.54;100396.19;21087930;28;20040;-58
2023/06/15 19:31:26;;;;;;;23.20;7.78;;;;;;;26.60;39.53;100402.63;21089158;28;20044;-59
2023/06/15 19:41:27;;;;;;;21.42;6.63;;;;;;;26.60;40.01;100400.63;21088529;28;20032;-59
2023/06/15 19:51:28;;;;;;;19.00;6.60;;;;;;;26.61;40.32;100398.66;21089877;28;20496;-58
2023/06/15 20:01:30;;;;;;;15.23;6.57;;;;;;;26.61;40.18;100402.28;21086863;28;20551;-57
2023/06/15 20:11:31;;;;;;;13.77;6.03;;;;;;;26.61;40.80;100393.03;21085028;28;20048;-59
2023/06/15 20:21:33;;;;;;;12.63;5.68;;;;;;;26.16;41.20;100308.44;21084622;28;20040;-58
2023/06/15 20:31:34;;;;;;;10.30;5.90;;;;;;;26.63;41.17;100373.91;21083883;28;20028;-58
2023/06/15 20:41:36;;;;;;;14.82;6.03;;;;;;;26.63;41.32;100373.91;21082325;28;20036;-58
2023/06/15 20:51:37;;;;;;;10.98;5.60;;;;;;;26.61;41.68;100382.63;21082279;28;20036;-59
2023/06/15 21:01:39;;;;;;;10.70;5.22;;;;;;;26.64;41.65;100389.56;21080541;28;20036;-58
2023/06/15 21:11:40;;;;;;;10.10;5.30;;;;;;;26.62;41.95;100389.09;21080887;28;20376;-58
2023/06/15 21:21:42;;;;;;;6.05;4.65;;;;;;;26.65;42.00;100382.81;21080812;28;20051;-57
2023/06/15 21:31:43;;;;;;;6.43;4.47;;;;;;;26.66;42.18;100378.81;21079938;28;20052;-57
2023/06/15 21:41:45;;;;;;;5.47;4.78;;;;;;;26.65;42.51;100370.75;21079933;28;20093;-57
2023/06/15 21:51:46;;;;;;;6.57;4.50;;;;;;;26.67;42.37;100362.84;21078767;28;20036;-57
2023/06/15 22:01:48;;;;;;;4.68;4.18;;;;;;;26.67;42.67;100374.06;21077507;28;20437;-58
2023/06/15 22:11:50;;;;;;;5.25;4.30;;;;;;;26.68;42.52;100382.16;21076583;28;20066;-57
2023/06/15 22:21:52;;;;;;;5.68;4.05;;;;;;;26.68;42.36;100364.47;21075750;28;20044;-59
2023/06/15 22:31:54;;;;;;;5.82;4.60;;;;;;;26.65;42.87;100359.53;21075609;28;20040;-59
2023/06/15 22:41:56;;;;;;;5.68;4.35;;;;;;;26.70;42.91;100387.41;21075473;28;20028;-58
2023/06/15 22:51:58;;;;;;;7.05;4.78;;;;;;;26.71;42.79;100405.91;21091162;28;20044;-57
2023/06/15 23:02:02;;;;;;;5.65;4.40;;;;;;;26.71;42.84;100415.16;21090712;28;20451;-57
2023/06/15 23:12:09;;;;;;;5.35;4.25;;;;;;;26.73;42.86;100410.03;21089797;28;20040;-58
2023/06/15 23:22:11;;;;;;;5.20;4.60;;;;;;;26.73;43.03;100417.63;21088990;28;20044;-58
2023/06/15 23:32:12;;;;;;;4.53;4.13;;;;;;;26.56;43.23;100401.63;21088845;28;20070;-58
2023/06/15 23:42:13;;;;;;;5.65;3.90;;;;;;;26.74;43.17;100448.16;21088344;28;20340;-57
2023/06/15 23:52:15;;;;;;;5.95;4.13;;;;;;;26.76;43.09;100456.28;21087722;28;20036;-59
